sensor_id;sensor_type;location;lat;lon;timestamp;pressure;altitude;pressure_sealevel;temperature;humidity
40490;BME280;26196;52.302;10.572;2023-02-19T00:02:51;100532.56;;;12.40;64.50
40490;BME280;26196;52.302;10.572;2023-02-19T00:06:51;100522.94;;;12.40;64.92
40490;BME280;26196;52.302;10.572;2023-02-19T00:11:30;100485.19;;;12.44;65.33
40490;BME280;26196;52.302;10.572;2023-02-19T00:15:31;100466.69;;;12.47;64.78
40490;BME280;26196;52.302;10.572;2023-02-19T00:19:31;100479.28;;;12.38;64.89
40490;BME280;26196;52.302;10.572;2023-02-19T00:23:32;100500.69;;;12.51;64.64
40490;BME280;26196;52.302;10.572;2023-02-19T00:28:06;100489.34;;;12.50;64.65
40490;BME280;26196;52.302;10.572;2023-02-19T00:32:07;100488.53;;;12.48;64.87
40490;BME280;26196;52.302;10.572;2023-02-19T00:36:07;100475.41;;;12.48;64.63
40490;BME280;26196;52.302;10.572;2023-02-19T00:40:08;100484.09;;;12.50;65.24
40490;BME280;26196;52.302;10.572;2023-02-19T00:44:09;100468.34;;;12.50;64.78
40490;BME280;26196;52.302;10.572;2023-02-19T00:48:44;100452.63;;;12.48;64.98
40490;BME280;26196;52.302;10.572;2023-02-19T00:52:44;100464.75;;;12.53;64.98
40490;BME280;26196;52.302;10.572;2023-02-19T00:56:45;100448.25;;;12.49;65.03
40490;BME280;26196;52.302;10.572;2023-02-19T01:00:45;100455.09;;;12.53;64.22
40490;BME280;26196;52.302;10.572;2023-02-19T01:04:46;100439.63;;;12.45;64.61
40490;BME280;26196;52.302;10.572;2023-02-19T01:13:23;100415.03;;;12.48;64.51
40490;BME280;26196;52.302;10.572;2023-02-19T01:17:24;100421.91;;;12.52;64.64
40490;BME280;26196;52.302;10.572;2023-02-19T01:21:26;100415.78;;;12.52;64.78
40490;BME280;26196;52.302;10.572;2023-02-19T01:25:27;100398.19;;;12.54;64.62
40490;BME280;26196;52.302;10.572;2023-02-19T01:29:27;100383.25;;;12.56;64.60
40490;BME280;26196;52.302;10.572;2023-02-19T01:33:27;100382.34;;;12.57;64.78
40490;BME280;26196;52.302;10.572;2023-02-19T01:37:28;100374.41;;;12.58;64.58
40490;BME280;26196;52.302;10.572;2023-02-19T01:41:28;100368.25;;;12.59;64.62
40490;BME280;26196;52.302;10.572;2023-02-19T01:45:30;100372.69;;;12.57;64.68
40490;BME280;26196;52.302;10.572;2023-02-19T01:49:35;100378.06;;;12.54;64.39
40490;BME280;26196;52.302;10.572;2023-02-19T01:53:41;100375.81;;;12.43;64.63
40490;BME280;26196;52.302;10.572;2023-02-19T01:58:14;100391.41;;;12.48;64.31
40490;BME280;26196;52.302;10.572;2023-02-19T02:02:14;100392.25;;;12.48;64.11
40490;BME280;26196;52.302;10.572;2023-02-19T02:06:28;100396.59;;;12.50;64.21
40490;BME280;26196;52.302;10.572;2023-02-19T02:10:29;100377.19;;;12.54;64.21
40490;BME280;26196;52.302;10.572;2023-02-19T02:19:16;100373.28;;;12.42;63.97
40490;BME280;26196;52.302;10.572;2023-02-19T02:23:43;100367.16;;;12.41;63.98
40490;BME280;26196;52.302;10.572;2023-02-19T02:32:24;100346.34;;;12.37;63.62
40490;BME280;26196;52.302;10.572;2023-02-19T02:36:35;100336.81;;;12.34;63.78
40490;BME280;26196;52.302;10.572;2023-02-19T02:40:38;100340.97;;;12.40;64.24
40490;BME280;26196;52.302;10.572;2023-02-19T02:44:41;100325.56;;;12.31;63.68
40490;BME280;26196;52.302;10.572;2023-02-19T02:58:23;100338.00;;;12.25;63.94
40490;BME280;26196;52.302;10.572;2023-02-19T03:02:27;100345.66;;;12.32;63.51
40490;BME280;26196;52.302;10.572;2023-02-19T03:07:03;100344.97;;;12.26;64.03
40490;BME280;26196;52.302;10.572;2023-02-19T03:11:06;100351.00;;;12.29;64.11
40490;BME280;26196;52.302;10.572;2023-02-19T03:15:30;100334.69;;;12.20;63.47
40490;BME280;26196;52.302;10.572;2023-02-19T03:20:08;100347.34;;;12.33;63.02
40490;BME280;26196;52.302;10.572;2023-02-19T03:24:11;100356.38;;;12.25;63.45
40490;BME280;26196;52.302;10.572;2023-02-19T03:28:32;100358.03;;;12.28;63.89
40490;BME280;26196;52.302;10.572;2023-02-19T03:33:17;100377.25;;;12.29;64.20
40490;BME280;26196;52.302;10.572;2023-02-19T03:37:54;100379.72;;;12.33;63.66
40490;BME280;26196;52.302;10.572;2023-02-19T03:42:02;100365.25;;;12.21;64.08
40490;BME280;26196;52.302;10.572;2023-02-19T03:46:13;100398.03;;;12.35;63.65
40490;BME280;26196;52.302;10.572;2023-02-19T03:50:49;100403.25;;;12.35;63.57
40490;BME280;26196;52.302;10.572;2023-02-19T03:58:56;100443.56;;;12.34;63.55
40490;BME280;26196;52.302;10.572;2023-02-19T04:07:34;100452.44;;;12.30;63.47
40490;BME280;26196;52.302;10.572;2023-02-19T04:11:37;100457.56;;;12.33;63.59
40490;BME280;26196;52.302;10.572;2023-02-19T04:15:39;100471.59;;;12.33;63.42
40490;BME280;26196;52.302;10.572;2023-02-19T04:19:42;100475.91;;;12.34;63.23
40490;BME280;26196;52.302;10.572;2023-02-19T04:23:44;100475.94;;;12.33;63.31
40490;BME280;26196;52.302;10.572;2023-02-19T04:27:45;100482.00;;;12.35;62.77
40490;BME280;26196;52.302;10.572;2023-02-19T04:31:46;100496.16;;;12.31;63.50
40490;BME280;26196;52.302;10.572;2023-02-19T04:35:46;100493.47;;;12.32;63.09
40490;BME280;26196;52.302;10.572;2023-02-19T04:40:23;100503.13;;;12.32;63.42
40490;BME280;26196;52.302;10.572;2023-02-19T04:44:24;100506.66;;;12.31;63.16
40490;BME280;26196;52.302;10.572;2023-02-19T04:48:24;100520.69;;;12.30;62.69
40490;BME280;26196;52.302;10.572;2023-02-19T04:53:01;100526.75;;;12.32;63.10
40490;BME280;26196;52.302;10.572;2023-02-19T04:57:02;100535.53;;;12.31;62.58
40490;BME280;26196;52.302;10.572;2023-02-19T05:01:02;100544.38;;;12.28;62.30
40490;BME280;26196;52.302;10.572;2023-02-19T05:05:03;100545.47;;;12.21;62.51
40490;BME280;26196;52.302;10.572;2023-02-19T05:09:03;100536.94;;;12.14;62.56
40490;BME280;26196;52.302;10.572;2023-02-19T05:13:38;100566.41;;;12.22;61.73
40490;BME280;26196;52.302;10.572;2023-02-19T05:17:39;100572.72;;;12.17;61.99
40490;BME280;26196;52.302;10.572;2023-02-19T05:21:39;100593.53;;;12.23;61.88
40490;BME280;26196;52.302;10.572;2023-02-19T05:25:40;100595.34;;;12.21;61.10
40490;BME280;26196;52.302;10.572;2023-02-19T05:34:31;100605.16;;;12.14;61.50
40490;BME280;26196;52.302;10.572;2023-02-19T05:38:31;100625.25;;;12.15;61.24
40490;BME280;26196;52.302;10.572;2023-02-19T05:42:32;100637.50;;;12.15;60.49
40490;BME280;26196;52.302;10.572;2023-02-19T05:46:32;100652.38;;;12.14;61.07
40490;BME280;26196;52.302;10.572;2023-02-19T05:50:34;100661.22;;;12.12;60.50
40490;BME280;26196;52.302;10.572;2023-02-19T05:55:09;100666.63;;;12.07;60.14
40490;BME280;26196;52.302;10.572;2023-02-19T06:03:15;100679.88;;;12.02;59.94
40490;BME280;26196;52.302;10.572;2023-02-19T06:07:15;100693.81;;;12.04;60.04
40490;BME280;26196;52.302;10.572;2023-02-19T06:11:16;100703.34;;;12.07;60.07
40490;BME280;26196;52.302;10.572;2023-02-19T06:15:17;100710.41;;;12.05;59.94
40490;BME280;26196;52.302;10.572;2023-02-19T06:19:17;100728.78;;;12.05;60.38
40490;BME280;26196;52.302;10.572;2023-02-19T06:23:17;100727.91;;;12.04;59.64
40490;BME280;26196;52.302;10.572;2023-02-19T06:27:52;100730.69;;;11.98;59.46
40490;BME280;26196;52.302;10.572;2023-02-19T06:31:52;100743.69;;;12.03;59.45
40490;BME280;26196;52.302;10.572;2023-02-19T06:35:53;100759.47;;;12.01;59.61
40490;BME280;26196;52.302;10.572;2023-02-19T06:39:53;100770.84;;;12.02;59.28
40490;BME280;26196;52.302;10.572;2023-02-19T06:43:57;100780.47;;;12.01;58.98
40490;BME280;26196;52.302;10.572;2023-02-19T06:52:29;100804.28;;;11.94;58.90
40490;BME280;26196;52.302;10.572;2023-02-19T06:56:31;100824.28;;;11.98;58.96
40490;BME280;26196;52.302;10.572;2023-02-19T07:00:33;100830.47;;;11.95;58.76
40490;BME280;26196;52.302;10.572;2023-02-19T07:04:33;100842.69;;;11.96;58.99
40490;BME280;26196;52.302;10.572;2023-02-19T07:08:34;100838.38;;;11.94;58.76
40490;BME280;26196;52.302;10.572;2023-02-19T07:12:34;100853.25;;;11.95;58.81
40490;BME280;26196;52.302;10.572;2023-02-19T07:16:35;100863.66;;;11.96;58.75
40490;BME280;26196;52.302;10.572;2023-02-19T07:21:10;100874.25;;;11.93;58.57
40490;BME280;26196;52.302;10.572;2023-02-19T07:25:45;100897.00;;;11.93;58.93
40490;BME280;26196;52.302;10.572;2023-02-19T07:29:45;100905.78;;;11.92;58.61
40490;BME280;26196;52.302;10.572;2023-02-19T07:33:47;100908.47;;;11.89;58.86
40490;BME280;26196;52.302;10.572;2023-02-19T07:37:47;100918.97;;;11.89;58.54
40490;BME280;26196;52.302;10.572;2023-02-19T07:41:47;100932.06;;;11.90;58.53
40490;BME280;26196;52.302;10.572;2023-02-19T07:45:48;100943.47;;;11.88;58.65
40490;BME280;26196;52.302;10.572;2023-02-19T07:49:49;100945.25;;;11.86;59.08
40490;BME280;26196;52.302;10.572;2023-02-19T07:54:23;100956.59;;;11.88;58.22
40490;BME280;26196;52.302;10.572;2023-02-19T07:58:24;100947.03;;;11.87;58.56
40490;BME280;26196;52.302;10.572;2023-02-19T08:02:24;100975.88;;;11.87;58.52
40490;BME280;26196;52.302;10.572;2023-02-19T08:06:43;100988.09;;;11.86;58.71
40490;BME280;26196;52.302;10.572;2023-02-19T08:15:36;100986.34;;;11.85;58.53
40490;BME280;26196;52.302;10.572;2023-02-19T08:20:11;100995.97;;;11.86;58.43
40490;BME280;26196;52.302;10.572;2023-02-19T08:24:11;101002.94;;;11.86;58.66
40490;BME280;26196;52.302;10.572;2023-02-19T08:28:48;101008.19;;;11.86;59.09
40490;BME280;26196;52.302;10.572;2023-02-19T08:37:26;101045.00;;;11.82;58.68
40490;BME280;26196;52.302;10.572;2023-02-19T08:42:00;101051.16;;;11.81;58.86
40490;BME280;26196;52.302;10.572;2023-02-19T08:51:12;101066.03;;;11.81;59.28
40490;BME280;26196;52.302;10.572;2023-02-19T08:55:12;101066.06;;;11.79;58.95
40490;BME280;26196;52.302;10.572;2023-02-19T08:59:50;101075.63;;;11.82;58.96
40490;BME280;26196;52.302;10.572;2023-02-19T09:03:50;101085.25;;;11.81;58.58
40490;BME280;26196;52.302;10.572;2023-02-19T09:07:50;101037.81;;;11.53;58.64
40490;BME280;26196;52.302;10.572;2023-02-19T09:11:50;101079.28;;;11.75;58.86
40490;BME280;26196;52.302;10.572;2023-02-19T09:15:51;101094.06;;;11.77;58.82
40490;BME280;26196;52.302;10.572;2023-02-19T09:19:51;101095.81;;;11.78;58.81
40490;BME280;26196;52.302;10.572;2023-02-19T09:23:52;101080.09;;;11.78;59.14
40490;BME280;26196;52.302;10.572;2023-02-19T09:28:26;101108.41;;;12.01;59.31
40490;BME280;26196;52.302;10.572;2023-02-19T09:33:04;101106.50;;;12.08;59.63
40490;BME280;26196;52.302;10.572;2023-02-19T09:37:38;101103.91;;;12.07;58.85
40490;BME280;26196;52.302;10.572;2023-02-19T09:56:30;101149.78;;;11.89;59.14
40490;BME280;26196;52.302;10.572;2023-02-19T10:05:12;101148.09;;;11.88;58.84
40490;BME280;26196;52.302;10.572;2023-02-19T10:13:51;101169.06;;;11.88;59.17
40490;BME280;26196;52.302;10.572;2023-02-19T10:18:24;101188.31;;;11.85;59.17
40490;BME280;26196;52.302;10.572;2023-02-19T10:22:27;101193.63;;;11.83;58.55
40490;BME280;26196;52.302;10.572;2023-02-19T10:26:27;101206.84;;;11.77;59.22
40490;BME280;26196;52.302;10.572;2023-02-19T10:31:06;101216.31;;;11.85;58.91
40490;BME280;26196;52.302;10.572;2023-02-19T10:35:13;101227.84;;;11.77;59.07
40490;BME280;26196;52.302;10.572;2023-02-19T10:47:58;101253.13;;;11.81;59.56
40490;BME280;26196;52.302;10.572;2023-02-19T10:52:33;101255.81;;;11.77;59.09
40490;BME280;26196;52.302;10.572;2023-02-19T10:56:35;101270.72;;;11.76;59.50
40490;BME280;26196;52.302;10.572;2023-02-19T11:00:37;101267.25;;;11.74;59.44
40490;BME280;26196;52.302;10.572;2023-02-19T11:09:33;101268.97;;;11.75;59.60
40490;BME280;26196;52.302;10.572;2023-02-19T11:13:36;101266.19;;;11.83;59.36
40490;BME280;26196;52.302;10.572;2023-02-19T11:17:38;101254.72;;;11.89;59.06
40490;BME280;26196;52.302;10.572;2023-02-19T11:21:39;101240.41;;;12.05;58.12
40490;BME280;26196;52.302;10.572;2023-02-19T11:30:31;101270.22;;;12.02;57.81
40490;BME280;26196;52.302;10.572;2023-02-19T11:39:18;101274.63;;;12.00;57.97
40490;BME280;26196;52.302;10.572;2023-02-19T11:43:53;101282.56;;;11.96;58.48
40490;BME280;26196;52.302;10.572;2023-02-19T11:57:44;101273.09;;;11.89;58.88
40490;BME280;26196;52.302;10.572;2023-02-19T12:32:24;101285.66;;;12.16;57.13
40490;BME280;26196;52.302;10.572;2023-02-19T12:45:29;101286.09;;;11.95;58.69
40490;BME280;26196;52.302;10.572;2023-02-19T13:03:27;101309.44;;;12.09;58.08
40490;BME280;26196;52.302;10.572;2023-02-19T13:12:13;101321.63;;;12.11;55.94
40490;BME280;26196;52.302;10.572;2023-02-19T13:16:16;101335.59;;;12.12;57.63
40490;BME280;26196;52.302;10.572;2023-02-19T13:20:48;101334.78;;;12.10;57.61
40490;BME280;26196;52.302;10.572;2023-02-19T13:24:51;101338.22;;;12.12;57.67
40490;BME280;26196;52.302;10.572;2023-02-19T13:37:38;101338.28;;;12.09;58.11
40490;BME280;26196;52.302;10.572;2023-02-19T13:41:40;101318.44;;;11.95;57.70
40490;BME280;26196;52.302;10.572;2023-02-19T13:46:16;101326.94;;;12.07;57.82
40490;BME280;26196;52.302;10.572;2023-02-19T13:50:25;101325.09;;;12.13;57.88
40490;BME280;26196;52.302;10.572;2023-02-19T13:54:28;101327.78;;;12.10;58.03
40490;BME280;26196;52.302;10.572;2023-02-19T14:02:33;101309.28;;;12.15;57.54
40490;BME280;26196;52.302;10.572;2023-02-19T14:11:08;101304.94;;;12.15;57.53
40490;BME280;26196;52.302;10.572;2023-02-19T14:15:43;101300.50;;;12.17;56.94
40490;BME280;26196;52.302;10.572;2023-02-19T14:24:16;101306.47;;;12.25;57.76
40490;BME280;26196;52.302;10.572;2023-02-19T14:28:53;101316.03;;;12.28;57.72
40490;BME280;26196;52.302;10.572;2023-02-19T14:38:05;101321.41;;;12.22;57.67
40490;BME280;26196;52.302;10.572;2023-02-19T14:42:40;101317.00;;;12.22;57.58
40490;BME280;26196;52.302;10.572;2023-02-19T14:47:16;101330.13;;;12.22;57.27
40490;BME280;26196;52.302;10.572;2023-02-19T14:56:23;101337.19;;;12.20;57.36
40490;BME280;26196;52.302;10.572;2023-02-19T15:00:55;101360.53;;;12.33;57.26
40490;BME280;26196;52.302;10.572;2023-02-19T15:05:31;101364.00;;;12.35;56.44
40490;BME280;26196;52.302;10.572;2023-02-19T15:10:06;101358.69;;;12.38;55.89
40490;BME280;26196;52.302;10.572;2023-02-19T15:14:07;101351.81;;;12.32;56.21
40490;BME280;26196;52.302;10.572;2023-02-19T15:22:45;101354.56;;;12.26;55.84
40490;BME280;26196;52.302;10.572;2023-02-19T15:26:48;101346.84;;;12.18;56.21
40490;BME280;26196;52.302;10.572;2023-02-19T15:31:13;101330.19;;;12.21;56.35
40490;BME280;26196;52.302;10.572;2023-02-19T15:40:13;101342.38;;;12.23;56.53
40490;BME280;26196;52.302;10.572;2023-02-19T15:44:53;101345.94;;;12.21;56.33
40490;BME280;26196;52.302;10.572;2023-02-19T15:49:33;101359.00;;;12.22;55.81
40490;BME280;26196;52.302;10.572;2023-02-19T15:58:30;101329.56;;;12.07;56.55
40490;BME280;26196;52.302;10.572;2023-02-19T16:02:31;101332.81;;;12.19;55.99
40490;BME280;26196;52.302;10.572;2023-02-19T16:07:19;101327.63;;;12.18;56.17
40490;BME280;26196;52.302;10.572;2023-02-19T16:11:50;101335.34;;;12.24;55.99
40490;BME280;26196;52.302;10.572;2023-02-19T16:20:24;101336.91;;;12.33;56.57
40490;BME280;26196;52.302;10.572;2023-02-19T16:24:39;101337.13;;;12.23;55.55
40490;BME280;26196;52.302;10.572;2023-02-19T16:28:59;101353.72;;;12.25;55.33
40490;BME280;26196;52.302;10.572;2023-02-19T16:37:40;101358.03;;;12.28;56.03
40490;BME280;26196;52.302;10.572;2023-02-19T16:46:35;101377.50;;;12.58;55.46
40490;BME280;26196;52.302;10.572;2023-02-19T17:00:30;101391.13;;;12.35;56.07
40490;BME280;26196;52.302;10.572;2023-02-19T17:05:04;101397.28;;;12.33;55.81
40490;BME280;26196;52.302;10.572;2023-02-19T17:09:06;101401.66;;;12.34;55.78
40490;BME280;26196;52.302;10.572;2023-02-19T17:13:41;101407.75;;;12.36;55.52
40490;BME280;26196;52.302;10.572;2023-02-19T17:17:42;101409.50;;;12.35;55.19
40490;BME280;26196;52.302;10.572;2023-02-19T17:21:43;101413.78;;;12.41;55.55
40490;BME280;26196;52.302;10.572;2023-02-19T17:26:07;101420.69;;;12.43;56.18
40490;BME280;26196;52.302;10.572;2023-02-19T17:30:42;101411.09;;;12.42;56.31
40490;BME280;26196;52.302;10.572;2023-02-19T17:39:19;101419.84;;;12.43;55.47
40490;BME280;26196;52.302;10.572;2023-02-19T17:43:54;101412.03;;;12.40;56.46
40490;BME280;26196;52.302;10.572;2023-02-19T17:48:31;101420.00;;;12.35;56.01
40490;BME280;26196;52.302;10.572;2023-02-19T17:53:06;101416.56;;;12.32;56.05
40490;BME280;26196;52.302;10.572;2023-02-19T17:57:07;101408.88;;;12.22;55.75
40490;BME280;26196;52.302;10.572;2023-02-19T18:01:07;101414.91;;;12.27;56.10
40490;BME280;26196;52.302;10.572;2023-02-19T18:10:20;101411.50;;;12.22;55.11
40490;BME280;26196;52.302;10.572;2023-02-19T18:14:54;101416.78;;;12.21;55.32
40490;BME280;26196;52.302;10.572;2023-02-19T18:19:29;101417.66;;;12.20;55.39
40490;BME280;26196;52.302;10.572;2023-02-19T18:23:29;101418.56;;;12.20;56.40
40490;BME280;26196;52.302;10.572;2023-02-19T18:27:30;101421.19;;;12.20;55.84
40490;BME280;26196;52.302;10.572;2023-02-19T18:31:31;101434.25;;;12.23;55.55
40490;BME280;26196;52.302;10.572;2023-02-19T18:45:30;101428.22;;;12.17;55.38
40490;BME280;26196;52.302;10.572;2023-02-19T18:50:05;101438.72;;;12.18;55.90
40490;BME280;26196;52.302;10.572;2023-02-19T18:54:41;101445.75;;;12.16;55.36
40490;BME280;26196;52.302;10.572;2023-02-19T18:59:16;101444.03;;;12.15;55.50
40490;BME280;26196;52.302;10.572;2023-02-19T19:03:53;101437.94;;;12.13;55.81
40490;BME280;26196;52.302;10.572;2023-02-19T19:13:05;101449.41;;;12.08;54.52
40490;BME280;26196;52.302;10.572;2023-02-19T19:17:42;101462.50;;;12.09;55.01
40490;BME280;26196;52.302;10.572;2023-02-19T19:22:17;101458.13;;;12.10;55.40
40490;BME280;26196;52.302;10.572;2023-02-19T19:31:19;101460.78;;;12.08;55.83
40490;BME280;26196;52.302;10.572;2023-02-19T19:40:28;101455.53;;;12.08;55.28
40490;BME280;26196;52.302;10.572;2023-02-19T19:45:06;101454.59;;;12.11;54.32
40490;BME280;26196;52.302;10.572;2023-02-19T19:49:06;101442.66;;;11.94;55.26
40490;BME280;26196;52.302;10.572;2023-02-19T19:57:44;101457.50;;;11.94;55.35
40490;BME280;26196;52.302;10.572;2023-02-19T20:01:53;101440.97;;;11.90;55.24
40490;BME280;26196;52.302;10.572;2023-02-19T20:06:27;101442.66;;;11.94;55.20
40490;BME280;26196;52.302;10.572;2023-02-19T20:11:02;101438.22;;;11.96;55.74
40490;BME280;26196;52.302;10.572;2023-02-19T20:15:39;101439.06;;;12.00;55.40
40490;BME280;26196;52.302;10.572;2023-02-19T20:20:17;101428.63;;;11.97;55.53
40490;BME280;26196;52.302;10.572;2023-02-19T20:24:55;101426.78;;;12.02;55.74
40490;BME280;26196;52.302;10.572;2023-02-19T20:29:30;101416.28;;;12.02;55.57
40490;BME280;26196;52.302;10.572;2023-02-19T20:34:06;101418.94;;;11.99;54.97
40490;BME280;26196;52.302;10.572;2023-02-19T20:38:40;101425.94;;;12.00;55.67
40490;BME280;26196;52.302;10.572;2023-02-19T20:42:42;101429.44;;;11.99;55.40
40490;BME280;26196;52.302;10.572;2023-02-19T20:47:20;101431.25;;;11.97;55.38
40490;BME280;26196;52.302;10.572;2023-02-19T20:51:56;101436.53;;;11.94;54.90
40490;BME280;26196;52.302;10.572;2023-02-19T20:56:30;101441.78;;;11.94;55.46
40490;BME280;26196;52.302;10.572;2023-02-19T21:01:07;101444.38;;;11.94;54.96
40490;BME280;26196;52.302;10.572;2023-02-19T21:05:42;101443.59;;;11.92;54.85
40490;BME280;26196;52.302;10.572;2023-02-19T21:10:17;101442.66;;;11.94;54.92
40490;BME280;26196;52.302;10.572;2023-02-19T21:14:17;101437.44;;;11.91;55.24
40490;BME280;26196;52.302;10.572;2023-02-19T21:18:18;101431.41;;;11.88;55.45
40490;BME280;26196;52.302;10.572;2023-02-19T21:22:52;101429.63;;;11.90;55.39
40490;BME280;26196;52.302;10.572;2023-02-19T21:26:53;101424.38;;;11.90;55.42
40490;BME280;26196;52.302;10.572;2023-02-19T21:30:53;101417.38;;;11.89;55.14
40490;BME280;26196;52.302;10.572;2023-02-19T21:35:30;101427.91;;;11.87;55.50
40490;BME280;26196;52.302;10.572;2023-02-19T21:39:31;101422.63;;;11.89;54.65
40490;BME280;26196;52.302;10.572;2023-02-19T21:43:33;101413.03;;;11.86;55.14
40490;BME280;26196;52.302;10.572;2023-02-19T21:47:33;101401.78;;;11.79;55.45
40490;BME280;26196;52.302;10.572;2023-02-19T21:51:39;101410.41;;;11.88;55.03
40490;BME280;26196;52.302;10.572;2023-02-19T21:56:11;101413.97;;;11.83;54.71
40490;BME280;26196;52.302;10.572;2023-02-19T22:00:12;101394.13;;;11.67;54.65
40490;BME280;26196;52.302;10.572;2023-02-19T22:04:14;101400.16;;;11.72;54.67
40490;BME280;26196;52.302;10.572;2023-02-19T22:08:15;101399.31;;;11.70;54.71
40490;BME280;26196;52.302;10.572;2023-02-19T22:12:18;101399.31;;;11.70;54.43
40490;BME280;26196;52.302;10.572;2023-02-19T22:16:52;101411.63;;;11.68;54.82
40490;BME280;26196;52.302;10.572;2023-02-19T22:20:53;101407.25;;;11.67;54.42
40490;BME280;26196;52.302;10.572;2023-02-19T22:24:53;101405.53;;;11.65;54.41
40490;BME280;26196;52.302;10.572;2023-02-19T22:28:54;101416.09;;;11.60;54.56
40490;BME280;26196;52.302;10.572;2023-02-19T22:33:29;101404.75;;;11.59;54.61
40490;BME280;26196;52.302;10.572;2023-02-19T22:37:29;101402.97;;;11.60;53.80
40490;BME280;26196;52.302;10.572;2023-02-19T22:41:29;101413.50;;;11.58;54.83
40490;BME280;26196;52.302;10.572;2023-02-19T22:45:30;101411.00;;;11.52;54.19
40490;BME280;26196;52.302;10.572;2023-02-19T22:49:30;101403.09;;;11.54;54.20
40490;BME280;26196;52.302;10.572;2023-02-19T22:53:30;101393.50;;;11.53;54.20
40490;BME280;26196;52.302;10.572;2023-02-19T22:58:08;101386.53;;;11.52;54.27
40490;BME280;26196;52.302;10.572;2023-02-19T23:02:08;101390.03;;;11.51;54.45
40490;BME280;26196;52.302;10.572;2023-02-19T23:06:08;101380.41;;;11.51;54.77
40490;BME280;26196;52.302;10.572;2023-02-19T23:10:10;101383.09;;;11.48;55.10
40490;BME280;26196;52.302;10.572;2023-02-19T23:14:13;101313.88;;;11.09;54.21
40490;BME280;26196;52.302;10.572;2023-02-19T23:22:46;101370.97;;;11.41;54.57
40490;BME280;26196;52.302;10.572;2023-02-19T23:26:49;101363.88;;;11.48;54.63
40490;BME280;26196;52.302;10.572;2023-02-19T23:30:50;101360.41;;;11.46;55.00
40490;BME280;26196;52.302;10.572;2023-02-19T23:34:50;101350.84;;;11.45;54.59
40490;BME280;26196;52.302;10.572;2023-02-19T23:38:50;101348.16;;;11.48;54.91
40490;BME280;26196;52.302;10.572;2023-02-19T23:42:51;101336.84;;;11.44;54.77
40490;BME280;26196;52.302;10.572;2023-02-19T23:46:51;101329.88;;;11.43;55.26
40490;BME280;26196;52.302;10.572;2023-02-19T23:50:52;101339.50;;;11.43;54.71
40490;BME280;26196;52.302;10.572;2023-02-19T23:55:29;101332.50;;;11.42;55.30
40490;BME280;26196;52.302;10.572;2023-02-19T23:59:29;101325.56;;;11.41;54.62
